Time;durP1;ratioP1;P1;durP2;ratioP2;P2;SDS_P1;SDS_P2;PMS_P1;PMS_P2;Temp;Humidity;BMP_temperature;BMP_pressure;BME280_temperature;BME280_humidity;BME280_pressure;Samples;Min_cycle;Max_cycle;Signal;HPM_P1;HPM_P2
2021/12/02 00:02:32;;;;;;;5.03;1.77;;;;;;;;;;4919656;29;20052;-47
2021/12/02 00:05:18;;;;;;;4.03;1.80;;;;;;;;;;4919073;29;20048;-51
2021/12/02 00:08:03;;;;;;;3.30;1.30;;;;;;;;;;4919724;29;20369;-47
2021/12/02 00:10:48;;;;;;;3.35;1.55;;;;;;;;;;4918236;29;20147;-51
2021/12/02 00:16:38;;;;;;;4.10;1.80;;;;;;;;;;4919180;29;20040;-47
2021/12/02 00:22:28;;;;;;;4.13;1.63;;;;;;;;;;4918086;29;20440;-48
2021/12/02 00:25:13;;;;;;;2.55;1.40;;;;;;;;;;4917996;29;20032;-49
2021/12/02 00:27:59;;;;;;;2.25;1.48;;;;;;;;;;4919300;29;20389;-52
2021/12/02 00:30:44;;;;;;;2.15;1.40;;;;;;;;;;4917868;29;20044;-52
2021/12/02 00:33:31;;;;;;;3.03;1.77;;;;;;;;;;4919058;29;20052;-49
2021/12/02 00:36:16;;;;;;;2.70;1.42;;;;;;;;;;4917574;29;20040;-51
2021/12/02 00:39:12;;;;;;;3.95;1.50;;;;;;;;;;4902036;29;20041;-53
2021/12/02 00:41:57;;;;;;;2.65;1.60;;;;;;;;;;4892245;29;20056;-48
2021/12/02 00:44:42;;;;;;;3.35;1.60;;;;;;;;;;4898881;29;20040;-51
2021/12/02 00:47:28;;;;;;;3.15;1.70;;;;;;;;;;4899696;29;20045;-52
2021/12/02 00:50:13;;;;;;;2.63;1.35;;;;;;;;;;4906048;29;20048;-50
2021/12/02 00:52:58;;;;;;;4.55;1.30;;;;;;;;;;4910054;29;20040;-48
2021/12/02 00:55:44;;;;;;;2.97;1.38;;;;;;;;;;4910026;29;20044;-44
2021/12/02 00:58:31;;;;;;;2.40;1.20;;;;;;;;;;4918438;29;20036;-50
2021/12/02 01:01:17;;;;;;;2.60;1.35;;;;;;;;;;4917608;29;20048;-50
2021/12/02 01:04:10;;;;;;;3.17;1.48;;;;;;;;;;4917318;29;20044;-52
2021/12/02 01:06:56;;;;;;;3.25;1.40;;;;;;;;;;4922912;29;20432;-45
2021/12/02 01:09:41;;;;;;;2.90;1.33;;;;;;;;;;4917854;29;20044;-47
2021/12/02 01:12:26;;;;;;;4.00;1.35;;;;;;;;;;4917195;29;20044;-47
2021/12/02 01:15:11;;;;;;;5.22;1.52;;;;;;;;;;4918527;29;20155;-50
2021/12/02 01:17:56;;;;;;;4.10;1.75;;;;;;;;;;4918289;29;20344;-47
2021/12/02 01:20:42;;;;;;;2.97;1.60;;;;;;;;;;4918202;29;20044;-50
2021/12/02 01:23:29;;;;;;;3.33;1.58;;;;;;;;;;4918102;29;20039;-50
2021/12/02 01:26:15;;;;;;;3.13;1.58;;;;;;;;;;4917867;29;20048;-50
2021/12/02 01:29:02;;;;;;;2.22;1.20;;;;;;;;;;4917070;29;20044;-51
2021/12/02 01:31:49;;;;;;;3.40;1.60;;;;;;;;;;4915832;29;20044;-50
2021/12/02 01:34:34;;;;;;;2.65;1.25;;;;;;;;;;4916675;29;20048;-47
2021/12/02 01:37:19;;;;;;;2.03;1.00;;;;;;;;;;4916526;29;20040;-50
2021/12/02 01:40:05;;;;;;;3.10;1.23;;;;;;;;;;4916450;29;20040;-48
2021/12/02 01:42:54;;;;;;;1.67;0.90;;;;;;;;;;4916397;29;20064;-50
2021/12/02 01:45:40;;;;;;;1.35;0.98;;;;;;;;;;4915224;29;20666;-49
2021/12/02 01:48:26;;;;;;;2.38;1.50;;;;;;;;;;4916493;29;20040;-54
2021/12/02 01:51:12;;;;;;;3.92;1.10;;;;;;;;;;4916403;29;20048;-51
2021/12/02 01:54:07;;;;;;;1.65;1.00;;;;;;;;;;4916530;29;20385;-47
2021/12/02 01:56:53;;;;;;;2.58;1.20;;;;;;;;;;4890142;29;20370;-45
2021/12/02 01:59:39;;;;;;;2.20;1.15;;;;;;;;;;4883120;29;20053;-51
2021/12/02 02:02:24;;;;;;;3.15;1.20;;;;;;;;;;4890813;29;20041;-50
2021/12/02 02:05:13;;;;;;;1.73;0.90;;;;;;;;;;4878861;29;20221;-46
2021/12/02 02:08:18;;;;;;;1.83;0.95;;;;;;;;;;4878698;29;20386;-50
2021/12/02 02:11:03;;;;;;;2.22;1.25;;;;;;;;;;4878368;29;20041;-52
2021/12/02 02:13:48;;;;;;;1.90;1.00;;;;;;;;;;4878012;29;20093;-52
2021/12/02 02:16:33;;;;;;;2.65;0.88;;;;;;;;;;4878766;29;20381;-54
2021/12/02 02:19:18;;;;;;;3.70;0.98;;;;;;;;;;4878497;29;20373;-56
2021/12/02 02:22:04;;;;;;;4.72;1.00;;;;;;;;;;4878575;29;20040;-47
2021/12/02 02:24:50;;;;;;;2.45;1.13;;;;;;;;;;4878440;29;20049;-52
2021/12/02 02:27:35;;;;;;;1.90;1.05;;;;;;;;;;4876818;29;20049;-49
2021/12/02 02:30:20;;;;;;;1.73;0.98;;;;;;;;;;4878335;29;20045;-50
2021/12/02 02:33:05;;;;;;;2.53;0.85;;;;;;;;;;4879241;29;20049;-51
2021/12/02 02:35:51;;;;;;;2.00;0.85;;;;;;;;;;4879184;29;20049;-48
2021/12/02 02:38:36;;;;;;;3.90;0.90;;;;;;;;;;4883638;29;20041;-52
2021/12/02 02:41:38;;;;;;;1.70;1.00;;;;;;;;;;4879283;29;20040;-48
2021/12/02 02:44:24;;;;;;;3.03;1.00;;;;;;;;;;4879124;29;20041;-46
2021/12/02 02:47:09;;;;;;;3.42;1.33;;;;;;;;;;4878251;29;20048;-49
2021/12/02 02:49:54;;;;;;;1.58;1.00;;;;;;;;;;4886109;29;20047;-47
2021/12/02 02:52:40;;;;;;;1.52;0.90;;;;;;;;;;4916581;29;20052;-45
2021/12/02 02:55:26;;;;;;;1.85;1.10;;;;;;;;;;4921475;29;20081;-46
2021/12/02 03:07:17;;;;;;;3.90;1.60;;;;;;;;;;4916492;29;20056;-47
2021/12/02 03:11:04;;;;;;;3.53;1.13;;;;;;;;;;4916557;29;20036;-48
2021/12/02 03:13:23;;;;;;;2.92;1.45;;;;;;;;;;4910267;29;20052;-47
2021/12/02 03:19:24;;;;;;;2.65;1.30;;;;;;;;;;4916504;29;20429;-50
2021/12/02 03:22:10;;;;;;;2.90;1.42;;;;;;;;;;4916427;29;20044;-45
2021/12/02 03:24:55;;;;;;;2.28;1.15;;;;;;;;;;4916373;29;20044;-50
2021/12/02 03:27:41;;;;;;;1.67;1.10;;;;;;;;;;4910734;29;20044;-53
2021/12/02 03:30:26;;;;;;;2.38;1.00;;;;;;;;;;4920152;29;20044;-55
2021/12/02 03:33:11;;;;;;;2.50;1.15;;;;;;;;;;4920177;29;20052;-52
2021/12/02 03:35:56;;;;;;;1.88;0.80;;;;;;;;;;4919974;29;20036;-45
2021/12/02 03:38:41;;;;;;;2.00;0.90;;;;;;;;;;4923751;29;20032;-50
2021/12/02 03:41:27;;;;;;;1.70;0.80;;;;;;;;;;4918055;29;20056;-52
2021/12/02 03:44:12;;;;;;;1.77;0.68;;;;;;;;;;4919106;29;20044;-49
2021/12/02 03:46:57;;;;;;;1.33;0.85;;;;;;;;;;4918797;29;20044;-50
2021/12/02 03:49:42;;;;;;;3.15;1.02;;;;;;;;;;4918120;29;20040;-50
2021/12/02 03:52:28;;;;;;;2.45;0.95;;;;;;;;;;4918977;29;20386;-50
2021/12/02 03:55:13;;;;;;;2.60;1.02;;;;;;;;;;4918605;29;20051;-51
2021/12/02 03:57:58;;;;;;;1.02;0.68;;;;;;;;;;4918656;29;20044;-49
2021/12/02 04:00:43;;;;;;;2.05;0.90;;;;;;;;;;4902200;29;20045;-52
2021/12/02 04:03:28;;;;;;;1.85;0.82;;;;;;;;;;4891385;29;20045;-54
2021/12/02 04:06:14;;;;;;;1.38;0.80;;;;;;;;;;4887855;29;20053;-55
2021/12/02 04:09:16;;;;;;;1.55;0.70;;;;;;;;;;4884483;29;20033;-48
2021/12/02 04:15:28;;;;;;;1.73;0.75;;;;;;;;;;4865321;29;20053;-53
2021/12/02 04:18:13;;;;;;;;;;;;;;;;;;4923981;29;20040;-50
2021/12/02 04:20:58;;;;;;;1.60;0.70;;;;;;;;;;4918135;29;19922;-53
2021/12/02 04:23:43;;;;;;;1.52;0.60;;;;;;;;;;4918087;29;20040;-51
2021/12/02 04:26:29;;;;;;;3.65;1.88;;;;;;;;;;4917040;29;20052;-52
2021/12/02 04:29:14;;;;;;;1.40;0.65;;;;;;;;;;4916855;29;20051;-46
2021/12/02 04:31:59;;;;;;;2.17;0.70;;;;;;;;;;4916768;29;20040;-52
2021/12/02 04:34:44;;;;;;;1.85;0.85;;;;;;;;;;4922566;29;20039;-50
2021/12/02 04:37:29;;;;;;;1.00;0.57;;;;;;;;;;4898316;29;20337;-50
2021/12/02 04:40:15;;;;;;;1.73;0.85;;;;;;;;;;4900030;29;20405;-50
2021/12/02 04:43:00;;;;;;;1.77;0.88;;;;;;;;;;4898704;29;20061;-48
2021/12/02 04:45:45;;;;;;;1.30;0.60;;;;;;;;;;4899925;29;20044;-44
2021/12/02 04:48:30;;;;;;;1.92;0.73;;;;;;;;;;4899881;29;20491;-45
2021/12/02 04:51:15;;;;;;;1.02;0.60;;;;;;;;;;4898860;29;20480;-48
2021/12/02 04:54:00;;;;;;;3.60;1.20;;;;;;;;;;4905319;29;20040;-48
2021/12/02 04:56:45;;;;;;;3.28;0.90;;;;;;;;;;4897507;29;20045;-50
2021/12/02 04:59:30;;;;;;;1.27;0.80;;;;;;;;;;4898486;29;20048;-49
2021/12/02 05:02:15;;;;;;;1.30;0.60;;;;;;;;;;4904403;29;20040;-52
2021/12/02 05:05:00;;;;;;;1.60;0.73;;;;;;;;;;4902727;29;20037;-50
2021/12/02 05:07:45;;;;;;;2.00;0.93;;;;;;;;;;4897919;29;20045;-55
2021/12/02 05:10:31;;;;;;;2.10;0.63;;;;;;;;;;4902405;29;20432;-48
2021/12/02 05:13:17;;;;;;;1.17;0.90;;;;;;;;;;4902452;29;20044;-48
2021/12/02 05:16:02;;;;;;;1.45;0.55;;;;;;;;;;4901452;29;20660;-51
2021/12/02 05:18:47;;;;;;;1.52;0.63;;;;;;;;;;4896932;29;20040;-50
2021/12/02 05:21:32;;;;;;;1.42;0.60;;;;;;;;;;4896522;29;20044;-47
2021/12/02 05:24:17;;;;;;;1.65;0.70;;;;;;;;;;4895194;29;20040;-55
2021/12/02 05:27:03;;;;;;;11.27;6.70;;;;;;;;;;4913493;29;20391;-53
2021/12/02 05:29:49;;;;;;;3.00;1.52;;;;;;;;;;4879364;29;20081;-50
2021/12/02 05:32:34;;;;;;;2.05;1.33;;;;;;;;;;4889348;29;20040;-57
2021/12/02 05:35:19;;;;;;;4.10;2.63;;;;;;;;;;4886820;29;20048;-48
2021/12/02 05:38:04;;;;;;;3.80;2.15;;;;;;;;;;4882724;29;20045;-51
2021/12/02 05:40:49;;;;;;;2.88;1.70;;;;;;;;;;4891903;29;20040;-53
2021/12/02 05:43:34;;;;;;;3.20;1.80;;;;;;;;;;4904444;29;20051;-50
2021/12/02 05:46:20;;;;;;;3.10;2.22;;;;;;;;;;4916534;29;20036;-52
2021/12/02 05:49:05;;;;;;;3.47;1.98;;;;;;;;;;4911732;29;20044;-54
2021/12/02 05:51:50;;;;;;;1.77;0.98;;;;;;;;;;4895793;29;20500;-55
2021/12/02 05:54:35;;;;;;;2.65;1.50;;;;;;;;;;4895617;29;20049;-58
2021/12/02 05:57:20;;;;;;;2.83;1.40;;;;;;;;;;4896686;29;20484;-51
2021/12/02 06:00:06;;;;;;;3.03;1.70;;;;;;;;;;4896845;29;20045;-52
2021/12/02 06:02:56;;;;;;;2.15;1.25;;;;;;;;;;4896848;29;20481;-51
2021/12/02 06:05:44;;;;;;;2.88;1.00;;;;;;;;;;4897701;29;20484;-47
2021/12/02 06:08:29;;;;;;;1.17;0.65;;;;;;;;;;4898303;29;20045;-47
2021/12/02 06:11:14;;;;;;;1.90;1.05;;;;;;;;;;4902777;29;20040;-46
2021/12/02 06:13:59;;;;;;;1.33;0.65;;;;;;;;;;4898205;29;20068;-51
2021/12/02 06:16:44;;;;;;;5.05;1.60;;;;;;;;;;4913913;29;20044;-50
2021/12/02 06:19:29;;;;;;;2.38;1.40;;;;;;;;;;4878307;29;20041;-50
2021/12/02 06:22:15;;;;;;;2.65;1.20;;;;;;;;;;4879452;29;20049;-48
2021/12/02 06:27:58;;;;;;;2.75;1.50;;;;;;;;;;4879183;29;20049;-51
2021/12/02 06:30:43;;;;;;;5.03;1.50;;;;;;;;;;4878462;29;20041;-48
2021/12/02 06:33:31;;;;;;;2.83;1.42;;;;;;;;;;4879483;29;20037;-44
2021/12/02 06:36:16;;;;;;;3.38;1.30;;;;;;;;;;4900279;29;20040;-45
2021/12/02 06:39:03;;;;;;;2.80;1.48;;;;;;;;;;4921400;29;20039;-45
2021/12/02 06:41:48;;;;;;;2.50;1.50;;;;;;;;;;4917008;29;20052;-51
2021/12/02 06:44:33;;;;;;;3.40;1.60;;;;;;;;;;4915995;29;20044;-47
2021/12/02 06:47:20;;;;;;;3.20;1.85;;;;;;;;;;4915776;29;20044;-45
2021/12/02 06:50:08;;;;;;;3.60;1.30;;;;;;;;;;4915123;29;20048;-56
2021/12/02 06:52:54;;;;;;;1.50;0.98;;;;;;;;;;4915902;29;20408;-53
2021/12/02 06:55:39;;;;;;;3.22;1.50;;;;;;;;;;4917204;29;20044;-49
2021/12/02 06:58:24;;;;;;;4.60;1.55;;;;;;;;;;4921400;29;20047;-51
2021/12/02 07:01:09;;;;;;;2.17;1.23;;;;;;;;;;4916523;29;20040;-53
2021/12/02 07:03:54;;;;;;;5.55;1.60;;;;;;;;;;4916464;29;20369;-46
2021/12/02 07:06:40;;;;;;;2.72;1.27;;;;;;;;;;4916369;29;20040;-50
2021/12/02 07:09:25;;;;;;;2.67;1.38;;;;;;;;;;4907057;29;20368;-46
2021/12/02 07:12:10;;;;;;;1.77;1.20;;;;;;;;;;4887076;29;20044;-51
2021/12/02 07:14:57;;;;;;;2.72;1.58;;;;;;;;;;4883512;29;20049;-48
2021/12/02 07:17:42;;;;;;;3.53;1.25;;;;;;;;;;4877578;29;20041;-50
2021/12/02 07:20:29;;;;;;;1.88;1.00;;;;;;;;;;4878840;29;20045;-54
2021/12/02 07:23:16;;;;;;;3.83;1.70;;;;;;;;;;4884297;29;20057;-47
2021/12/02 07:26:01;;;;;;;2.25;0.88;;;;;;;;;;4878690;29;20256;-47
2021/12/02 07:28:47;;;;;;;2.35;1.35;;;;;;;;;;4864034;29;20049;-50
2021/12/02 07:31:33;;;;;;;3.22;1.52;;;;;;;;;;4876315;29;20041;-53
2021/12/02 07:34:23;;;;;;;8.80;7.25;;;;;;;;;;4875945;29;20041;-56
2021/12/02 07:37:08;;;;;;;3.65;1.63;;;;;;;;;;4877294;29;20053;-53
2021/12/02 07:39:54;;;;;;;2.03;1.33;;;;;;;;;;4882607;29;20045;-53
2021/12/02 07:42:39;;;;;;;3.60;1.50;;;;;;;;;;4875926;29;20053;-54
2021/12/02 07:45:27;;;;;;;2.40;1.23;;;;;;;;;;4884444;29;20041;-53
2021/12/02 07:48:13;;;;;;;3.38;1.55;;;;;;;;;;4876217;29;20053;-55
2021/12/02 07:51:00;;;;;;;41.28;34.20;;;;;;;;;;4889422;29;20041;-50
2021/12/02 07:53:48;;;;;;;23.63;17.00;;;;;;;;;;4869019;29;20069;-50
2021/12/02 07:56:33;;;;;;;8.93;6.78;;;;;;;;;;4882326;29;20048;-48
2021/12/02 07:59:19;;;;;;;9.00;4.80;;;;;;;;;;4869859;29;20049;-48
2021/12/02 08:02:10;;;;;;;7.13;3.92;;;;;;;;;;4878054;29;20053;-44
2021/12/02 08:04:55;;;;;;;6.88;4.50;;;;;;;;;;4882550;29;20044;-46
2021/12/02 08:07:43;;;;;;;8.25;3.72;;;;;;;;;;4877764;29;20389;-47
2021/12/02 08:10:29;;;;;;;6.88;4.25;;;;;;;;;;4877112;29;20044;-45
2021/12/02 08:13:14;;;;;;;9.13;3.72;;;;;;;;;;4879344;29;20053;-49
2021/12/02 08:16:02;;;;;;;4.47;3.08;;;;;;;;;;4885157;29;20045;-49
2021/12/02 08:18:47;;;;;;;6.32;2.92;;;;;;;;;;4885112;29;20041;-51
2021/12/02 08:21:32;;;;;;;6.10;2.67;;;;;;;;;;4886324;29;20053;-46
2021/12/02 08:24:21;;;;;;;3.88;2.33;;;;;;;;;;4880434;29;20048;-47
2021/12/02 08:27:06;;;;;;;3.95;2.42;;;;;;;;;;4892224;29;20053;-48
2021/12/02 08:29:51;;;;;;;6.53;2.50;;;;;;;;;;4892433;29;20045;-49
2021/12/02 08:32:40;;;;;;;4.43;2.33;;;;;;;;;;4881231;29;20049;-55
2021/12/02 08:35:26;;;;;;;6.47;2.15;;;;;;;;;;4881098;29;20036;-45
2021/12/02 08:38:14;;;;;;;5.45;2.00;;;;;;;;;;4904343;29;20037;-47
2021/12/02 08:41:00;;;;;;;5.20;2.50;;;;;;;;;;4881210;29;20041;-49
2021/12/02 08:43:48;;;;;;;6.13;2.40;;;;;;;;;;4880463;29;20053;-45
2021/12/02 08:46:34;;;;;;;6.40;2.22;;;;;;;;;;4885596;29;20041;-46
2021/12/02 08:49:20;;;;;;;6.75;2.28;;;;;;;;;;4881017;29;20488;-50
2021/12/02 08:52:05;;;;;;;6.78;3.20;;;;;;;;;;4893178;29;20045;-48
2021/12/02 08:54:51;;;;;;;5.13;2.17;;;;;;;;;;4881340;29;20033;-49
2021/12/02 08:57:37;;;;;;;4.97;1.95;;;;;;;;;;4881072;29;20369;-54
2021/12/02 09:00:26;;;;;;;4.05;1.80;;;;;;;;;;4885522;29;20045;-52
2021/12/02 09:03:13;;;;;;;4.57;1.73;;;;;;;;;;4892946;29;20049;-47
2021/12/02 09:05:58;;;;;;;6.35;1.70;;;;;;;;;;4881012;29;20048;-49
2021/12/02 09:08:43;;;;;;;3.65;2.33;;;;;;;;;;4892729;29;20048;-46
2021/12/02 09:11:30;;;;;;;9.35;2.15;;;;;;;;;;4880924;29;20360;-48
2021/12/02 09:14:15;;;;;;;3.03;1.60;;;;;;;;;;4885037;29;20041;-50
2021/12/02 09:17:00;;;;;;;5.00;1.85;;;;;;;;;;4872025;29;20476;-48
2021/12/02 09:19:46;;;;;;;3.78;1.58;;;;;;;;;;4880612;29;20045;-51
2021/12/02 09:22:31;;;;;;;3.97;2.35;;;;;;;;;;4880531;29;20037;-48
2021/12/02 09:25:16;;;;;;;3.55;2.13;;;;;;;;;;4892276;29;20049;-49
2021/12/02 09:28:02;;;;;;;3.58;1.90;;;;;;;;;;4879310;29;20041;-52
2021/12/02 09:30:47;;;;;;;9.73;2.83;;;;;;;;;;4879768;29;20041;-44
2021/12/02 09:33:32;;;;;;;3.40;1.60;;;;;;;;;;4879842;29;20045;-50
2021/12/02 09:36:18;;;;;;;3.67;1.65;;;;;;;;;;4902145;29;20044;-46
2021/12/02 09:39:05;;;;;;;8.25;3.00;;;;;;;;;;4908381;29;20362;-56
2021/12/02 09:41:50;;;;;;;7.05;3.63;;;;;;;;;;4878925;29;20065;-61
2021/12/02 09:44:39;;;;;;;6.35;2.63;;;;;;;;;;4879002;29;20045;-53
2021/12/02 09:47:24;;;;;;;5.72;2.85;;;;;;;;;;4879779;29;20488;-53
2021/12/02 09:50:14;;;;;;;6.38;2.38;;;;;;;;;;4884656;29;20053;-54
2021/12/02 09:53:16;;;;;;;7.25;4.18;;;;;;;;;;4879366;29;20041;-51
2021/12/02 09:58:54;;;;;;;;;;;;;;;;;;4886890;29;20044;-48
2021/12/02 10:01:46;;;;;;;3.60;2.63;;;;;;;;;;4879022;29;19982;-52
2021/12/02 10:04:32;;;;;;;3.38;1.60;;;;;;;;;;4877797;29;20045;-53
2021/12/02 10:07:33;;;;;;;2.47;1.55;;;;;;;;;;4878329;29;20052;-51
2021/12/02 10:10:40;;;;;;;8.75;1.65;;;;;;;;;;4881252;29;20044;-53
2021/12/02 10:13:30;;;;;;;5.80;1.30;;;;;;;;;;4898705;29;20041;-50
2021/12/02 10:16:27;;;;;;;2.63;1.30;;;;;;;;;;4864365;29;20048;-51
2021/12/02 10:19:19;;;;;;;4.63;1.70;;;;;;;;;;4878218;29;20045;-53
2021/12/02 10:22:07;;;;;;;;;;;;;;;;;;4878493;29;20037;-52
2021/12/02 10:24:52;;;;;;;3.92;2.83;;;;;;;;;;4886947;29;19919;-52
2021/12/02 10:27:57;;;;;;;2.25;1.15;;;;;;;;;;4878190;29;20041;-48
2021/12/02 10:30:43;;;;;;;3.30;1.90;;;;;;;;;;4881605;29;20378;-54
2021/12/02 10:33:33;;;;;;;5.00;2.40;;;;;;;;;;4883581;29;20045;-49
2021/12/02 10:36:29;;;;;;;5.65;2.33;;;;;;;;;;4903781;29;20044;-53
2021/12/02 10:39:18;;;;;;;5.05;1.90;;;;;;;;;;4915757;29;20479;-48
2021/12/02 10:42:07;;;;;;;4.30;1.95;;;;;;;;;;4919372;29;20056;-55
2021/12/02 10:44:54;;;;;;;3.80;1.88;;;;;;;;;;4921244;29;20047;-50
2021/12/02 10:47:47;;;;;;;4.55;2.00;;;;;;;;;;4915989;29;20040;-42
2021/12/02 10:50:36;;;;;;;17.17;9.98;;;;;;;;;;4915794;29;20052;-42
2021/12/02 10:53:21;;;;;;;8.55;6.35;;;;;;;;;;4915689;29;20048;-45
2021/12/02 10:56:10;;;;;;;7.05;3.55;;;;;;;;;;4916581;29;20036;-45
2021/12/02 10:59:10;;;;;;;3.67;1.83;;;;;;;;;;4915764;29;20044;-59
2021/12/02 11:01:59;;;;;;;2.72;1.50;;;;;;;;;;4912072;29;20037;-55
2021/12/02 11:04:46;;;;;;;3.08;1.52;;;;;;;;;;4877617;29;20045;-54
2021/12/02 11:07:33;;;;;;;2.38;1.63;;;;;;;;;;4883322;29;20037;-54
2021/12/02 11:10:19;;;;;;;4.13;2.17;;;;;;;;;;4884178;29;20053;-49
2021/12/02 11:13:05;;;;;;;3.28;1.77;;;;;;;;;;4878411;29;20045;-52
2021/12/02 11:15:50;;;;;;;12.82;3.35;;;;;;;;;;4878387;29;20041;-52
2021/12/02 11:18:35;;;;;;;12.02;3.45;;;;;;;;;;4878584;29;20041;-55
2021/12/02 11:21:21;;;;;;;5.20;1.30;;;;;;;;;;4878634;29;20041;-49
2021/12/02 11:24:08;;;;;;;5.75;1.70;;;;;;;;;;4878331;29;20037;-56
2021/12/02 11:27:24;;;;;;;8.30;2.13;;;;;;;;;;4882851;29;20045;-51
2021/12/02 11:30:18;;;;;;;3.65;1.00;;;;;;;;;;4872725;29;20367;-48
2021/12/02 11:33:05;;;;;;;2.92;1.40;;;;;;;;;;4881819;29;20053;-51
2021/12/02 11:35:51;;;;;;;2.65;0.85;;;;;;;;;;4897360;29;20369;-48
2021/12/02 11:38:36;;;;;;;2.80;1.15;;;;;;;;;;4914666;29;20364;-52
2021/12/02 11:41:22;;;;;;;4.20;1.20;;;;;;;;;;4914626;29;20036;-54
2021/12/02 11:44:07;;;;;;;5.88;1.33;;;;;;;;;;4914869;29;20471;-54
2021/12/02 11:46:55;;;;;;;0.77;0.40;;;;;;;;;;4877500;29;20041;-53
2021/12/02 11:49:41;;;;;;;1.90;0.50;;;;;;;;;;4880188;29;20044;-55
2021/12/02 11:52:27;;;;;;;0.95;0.32;;;;;;;;;;4880594;29;20041;-52
2021/12/02 11:55:31;;;;;;;0.55;0.20;;;;;;;;;;4881245;29;20053;-54
2021/12/02 11:58:17;;;;;;;1.75;0.50;;;;;;;;;;4885263;29;20493;-55
2021/12/02 12:01:02;;;;;;;3.85;0.50;;;;;;;;;;4880986;29;20045;-51
2021/12/02 12:03:49;;;;;;;0.30;0.20;;;;;;;;;;4880508;29;20048;-48
2021/12/02 12:06:36;;;;;;;0.93;0.60;;;;;;;;;;4880580;29;20378;-52
2021/12/02 12:09:21;;;;;;;2.13;0.60;;;;;;;;;;4884454;29;20053;-56
2021/12/02 12:12:06;;;;;;;1.75;0.43;;;;;;;;;;4881213;29;20382;-55
2021/12/02 12:14:52;;;;;;;1.70;0.50;;;;;;;;;;4880596;29;20045;-58
2021/12/02 12:17:41;;;;;;;1.42;0.40;;;;;;;;;;4880439;29;20461;-53
2021/12/02 12:20:46;;;;;;;1.70;0.30;;;;;;;;;;4892117;29;20374;-51
2021/12/02 12:23:36;;;;;;;1.15;0.55;;;;;;;;;;4881810;29;20041;-60
2021/12/02 12:26:27;;;;;;;2.08;0.43;;;;;;;;;;4882778;29;20052;-53
2021/12/02 12:29:13;;;;;;;1.63;0.30;;;;;;;;;;4882977;29;20053;-55
2021/12/02 12:32:05;;;;;;;2.33;0.30;;;;;;;;;;4895001;29;20049;-54
2021/12/02 12:38:19;;;;;;;0.80;0.32;;;;;;;;;;4863320;29;20053;-56
2021/12/02 12:41:12;;;;;;;0.75;0.30;;;;;;;;;;4879540;29;20045;-51
2021/12/02 12:43:57;;;;;;;0.60;0.30;;;;;;;;;;4879719;29;20049;-53
2021/12/02 12:46:53;;;;;;;1.23;0.30;;;;;;;;;;4880480;29;20037;-53
2021/12/02 12:49:38;;;;;;;0.63;0.20;;;;;;;;;;4880136;29;20040;-57
2021/12/02 12:52:23;;;;;;;1.65;0.40;;;;;;;;;;4880155;29;20041;-59
2021/12/02 12:55:18;;;;;;;0.77;0.35;;;;;;;;;;4882738;29;20044;-59
2021/12/02 12:58:06;;;;;;;2.95;0.32;;;;;;;;;;4884857;29;20040;-64
2021/12/02 13:00:53;;;;;;;0.68;0.30;;;;;;;;;;4916514;29;20040;-55
2021/12/02 13:03:45;;;;;;;0.43;0.20;;;;;;;;;;4917967;29;20472;-55
2021/12/02 13:06:33;;;;;;;1.80;0.65;;;;;;;;;;4909931;29;20048;-47
2021/12/02 13:09:35;;;;;;;1.00;0.32;;;;;;;;;;4906592;29;20049;-54
2021/12/02 13:12:36;;;;;;;1.00;0.50;;;;;;;;;;4888507;29;20036;-53
2021/12/02 13:15:23;;;;;;;5.78;0.68;;;;;;;;;;4880134;29;20064;-48
2021/12/02 13:18:28;;;;;;;1.30;0.60;;;;;;;;;;4880486;29;20041;-48
2021/12/02 13:21:21;;;;;;;4.05;0.70;;;;;;;;;;4880011;29;20346;-55
2021/12/02 13:24:06;;;;;;;2.47;0.50;;;;;;;;;;4880172;29;20041;-56
2021/12/02 13:26:57;;;;;;;1.98;0.60;;;;;;;;;;4884069;29;20469;-60
2021/12/02 13:29:42;;;;;;;1.33;0.50;;;;;;;;;;4891287;29;20370;-59
2021/12/02 13:32:27;;;;;;;2.75;0.50;;;;;;;;;;4879377;29;20378;-59
2021/12/02 13:35:23;;;;;;;0.35;0.30;;;;;;;;;;4883470;29;20040;-60
2021/12/02 13:38:09;;;;;;;1.58;0.43;;;;;;;;;;4922444;29;20044;-58
2021/12/02 13:40:54;;;;;;;4.15;0.65;;;;;;;;;;4915983;29;20056;-61
2021/12/02 13:43:53;;;;;;;1.00;0.47;;;;;;;;;;4922297;29;20056;-60
2021/12/02 13:46:40;;;;;;;4.38;0.70;;;;;;;;;;4916574;29;20405;-59
2021/12/02 13:49:25;;;;;;;2.67;0.45;;;;;;;;;;4901984;29;20060;-57
2021/12/02 13:55:09;;;;;;;1.42;0.50;;;;;;;;;;4916120;29;20048;-60
2021/12/02 14:00:59;;;;;;;1.80;0.40;;;;;;;;;;4916525;29;20048;-62
2021/12/02 14:03:44;;;;;;;1.95;0.70;;;;;;;;;;4902726;29;20052;-56
2021/12/02 14:06:29;;;;;;;2.92;0.47;;;;;;;;;;4912436;29;20036;-55
2021/12/02 14:09:18;;;;;;;0.73;0.40;;;;;;;;;;4878362;29;20173;-59
2021/12/02 14:12:07;;;;;;;1.08;0.38;;;;;;;;;;4878130;29;20045;-55
2021/12/02 14:15:04;;;;;;;0.60;0.32;;;;;;;;;;4878320;29;20044;-59
2021/12/02 14:17:52;;;;;;;1.25;0.45;;;;;;;;;;4890587;29;20049;-60
2021/12/02 14:20:39;;;;;;;4.90;0.47;;;;;;;;;;4878793;29;20041;-65
2021/12/02 14:23:32;;;;;;;2.50;0.40;;;;;;;;;;4876436;29;20196;-60
2021/12/02 14:26:23;;;;;;;0.52;0.30;;;;;;;;;;4890934;29;20374;-59
2021/12/02 14:29:13;;;;;;;0.68;0.30;;;;;;;;;;4879274;29;20049;-60
2021/12/02 14:32:08;;;;;;;0.45;0.25;;;;;;;;;;4877302;29;20373;-60
2021/12/02 14:35:13;;;;;;;4.30;0.80;;;;;;;;;;4897668;29;20037;-57
2021/12/02 14:37:59;;;;;;;1.40;0.57;;;;;;;;;;4898175;29;20044;-60
2021/12/02 14:40:45;;;;;;;1.17;0.40;;;;;;;;;;4898041;29;20036;-62
2021/12/02 14:43:31;;;;;;;2.30;0.30;;;;;;;;;;4897760;29;20484;-62
2021/12/02 14:46:43;;;;;;;1.00;0.50;;;;;;;;;;4897338;29;20044;-59
2021/12/02 14:49:36;;;;;;;2.90;0.30;;;;;;;;;;4877040;29;20045;-61
2021/12/02 14:52:26;;;;;;;0.93;0.40;;;;;;;;;;4877178;29;20045;-54
2021/12/02 14:55:17;;;;;;;1.95;0.50;;;;;;;;;;4869245;29;20075;-59
2021/12/02 14:58:09;;;;;;;3.57;0.60;;;;;;;;;;4882454;29;20410;-61
2021/12/02 15:01:14;;;;;;;0.85;0.43;;;;;;;;;;4876768;29;20465;-56
2021/12/02 15:04:13;;;;;;;0.75;0.47;;;;;;;;;;4869260;29;20370;-58
2021/12/02 15:07:06;;;;;;;1.83;0.50;;;;;;;;;;4877024;29;20045;-53
2021/12/02 15:09:52;;;;;;;4.55;0.70;;;;;;;;;;4876930;29;20056;-57
2021/12/02 15:12:39;;;;;;;2.45;0.65;;;;;;;;;;4877525;29;20485;-55
2021/12/02 15:15:24;;;;;;;1.13;0.73;;;;;;;;;;4869486;29;20521;-58
2021/12/02 15:18:10;;;;;;;1.80;0.52;;;;;;;;;;4863694;29;20049;-57
2021/12/02 15:21:01;;;;;;;1.00;0.45;;;;;;;;;;4877049;29;20203;-62
2021/12/02 15:23:50;;;;;;;1.42;0.57;;;;;;;;;;4880954;29;20044;-60
2021/12/02 15:26:35;;;;;;;1.63;0.63;;;;;;;;;;4888767;29;20108;-56
2021/12/02 15:29:21;;;;;;;1.77;0.80;;;;;;;;;;4898756;29;20053;-60
2021/12/02 15:32:06;;;;;;;2.35;0.57;;;;;;;;;;4890943;29;20469;-60
2021/12/02 15:34:52;;;;;;;1.95;0.90;;;;;;;;;;4894231;29;20494;-62
2021/12/02 15:37:37;;;;;;;2.33;0.90;;;;;;;;;;4895940;29;20040;-57
2021/12/02 15:40:22;;;;;;;4.63;1.10;;;;;;;;;;4887326;29;20049;-59
2021/12/02 15:43:13;;;;;;;2.63;0.90;;;;;;;;;;4886247;29;20064;-60
2021/12/02 15:45:59;;;;;;;2.92;0.85;;;;;;;;;;4891413;29;20033;-54
2021/12/02 15:48:46;;;;;;;1.88;0.70;;;;;;;;;;4907358;29;20044;-61
2021/12/02 15:51:34;;;;;;;2.80;0.80;;;;;;;;;;4881226;29;20045;-56
2021/12/02 15:54:19;;;;;;;2.05;0.60;;;;;;;;;;4879683;29;20049;-58
2021/12/02 15:57:04;;;;;;;2.72;1.05;;;;;;;;;;4885202;29;20048;-63
2021/12/02 15:59:50;;;;;;;2.13;0.90;;;;;;;;;;4867648;29;20048;-59
2021/12/02 16:02:36;;;;;;;1.70;0.88;;;;;;;;;;4889003;29;20040;-58
2021/12/02 16:05:55;;;;;;;7.13;1.00;;;;;;;;;;4885372;29;20040;-59
2021/12/02 16:08:37;;;;;;;3.08;1.00;;;;;;;;;;4905186;29;20041;-62
2021/12/02 16:11:31;;;;;;;2.08;1.00;;;;;;;;;;4898499;29;20053;-61
2021/12/02 16:14:17;;;;;;;2.03;0.80;;;;;;;;;;4882513;29;20476;-60
2021/12/02 16:17:03;;;;;;;1.23;0.70;;;;;;;;;;4885371;29;20053;-63
2021/12/02 16:19:48;;;;;;;2.10;1.23;;;;;;;;;;4888165;29;20049;-57
2021/12/02 16:22:34;;;;;;;4.60;0.90;;;;;;;;;;4882659;29;20041;-59
2021/12/02 16:25:21;;;;;;;1.50;0.90;;;;;;;;;;4896197;29;20483;-58
2021/12/02 16:28:06;;;;;;;3.65;1.20;;;;;;;;;;4900453;29;20044;-59
2021/12/02 16:30:52;;;;;;;3.08;1.00;;;;;;;;;;4912267;29;20041;-57
2021/12/02 16:33:37;;;;;;;1.73;0.90;;;;;;;;;;4899672;29;20044;-61
2021/12/02 16:36:22;;;;;;;3.03;0.90;;;;;;;;;;4912040;29;20044;-58
2021/12/02 16:39:07;;;;;;;5.18;1.00;;;;;;;;;;4892914;29;20045;-58
2021/12/02 16:41:52;;;;;;;4.45;1.08;;;;;;;;;;4881224;29;20060;-54
2021/12/02 16:44:37;;;;;;;1.45;1.10;;;;;;;;;;4886026;29;20378;-60
2021/12/02 16:47:22;;;;;;;1.05;0.70;;;;;;;;;;4881392;29;20041;-59
2021/12/02 16:50:08;;;;;;;2.03;1.20;;;;;;;;;;4881341;29;20049;-55
2021/12/02 16:52:54;;;;;;;2.55;0.82;;;;;;;;;;4881543;29;20037;-60
2021/12/02 16:55:39;;;;;;;2.38;1.17;;;;;;;;;;4880469;29;20048;-61
2021/12/02 16:58:24;;;;;;;3.75;1.20;;;;;;;;;;4893556;29;20045;-58
2021/12/02 17:01:10;;;;;;;3.13;1.00;;;;;;;;;;4881253;29;20033;-57
2021/12/02 17:03:57;;;;;;;2.63;1.10;;;;;;;;;;4872794;29;20037;-62
2021/12/02 17:06:42;;;;;;;3.95;1.25;;;;;;;;;;4886081;29;20040;-57
2021/12/02 17:09:27;;;;;;;2.00;0.82;;;;;;;;;;4880349;29;20398;-59
2021/12/02 17:12:12;;;;;;;3.80;1.20;;;;;;;;;;4879378;29;20374;-60
2021/12/02 17:14:58;;;;;;;4.45;0.90;;;;;;;;;;4892202;29;20045;-57
2021/12/02 17:17:43;;;;;;;1.88;1.00;;;;;;;;;;4892059;29;20049;-57
2021/12/02 17:20:28;;;;;;;3.30;1.10;;;;;;;;;;4880071;29;20045;-60
2021/12/02 17:23:15;;;;;;;2.60;0.85;;;;;;;;;;4879837;29;20049;-56